Time;durP1;ratioP1;P1;durP2;ratioP2;P2;SDS_P1;SDS_P2;PMS_P1;PMS_P2;Temp;Humidity;BMP_temperature;BMP_pressure;BME280_temperature;BME280_humidity;BME280_pressure;Samples;Min_cycle;Max_cycle;Signal;HPM_P1;HPM_P2
2022/12/31 00:00:20;;;;;;;1.17;0.90;;;;;;;7.64;82.02;100168.56;5092224;28;20208;-62
2022/12/31 00:02:48;;;;;;;1.80;1.27;;;;;;;7.64;81.94;100177.03;5092216;28;20194;-62
2022/12/31 00:05:15;;;;;;;1.63;1.37;;;;;;;7.59;82.00;100167.94;5092179;28;20209;-62
2022/12/31 00:07:42;;;;;;;1.33;1.10;;;;;;;7.61;82.48;100171.25;5092371;28;20205;-62
2022/12/31 00:10:09;;;;;;;0.70;0.70;;;;;;;7.73;81.89;100168.16;5092037;28;20606;-62
2022/12/31 00:12:36;;;;;;;1.43;0.90;;;;;;;7.76;81.40;100178.22;5092172;28;20208;-59
2022/12/31 00:15:03;;;;;;;1.23;0.87;;;;;;;7.81;80.87;100181.41;5091912;28;20221;-62
2022/12/31 00:17:30;;;;;;;1.17;0.97;;;;;;;7.82;80.95;100182.22;5092055;28;20206;-62
2022/12/31 00:19:58;;;;;;;1.40;0.80;;;;;;;7.84;80.91;100181.28;5092049;28;20241;-60
2022/12/31 00:22:25;;;;;;;2.33;1.10;;;;;;;7.83;81.00;100192.34;5091907;28;20206;-60
2022/12/31 00:24:52;;;;;;;3.07;1.17;;;;;;;7.85;80.54;100185.50;5091638;28;20213;-62
2022/12/31 00:27:21;;;;;;;1.07;0.90;;;;;;;7.85;80.61;100188.03;5091482;28;20197;-62
2022/12/31 00:29:47;;;;;;;1.10;0.70;;;;;;;7.80;80.83;100189.94;5091790;28;20253;-62
2022/12/31 00:32:14;;;;;;;1.83;1.40;;;;;;;7.83;80.87;100192.34;5092035;28;20202;-62
2022/12/31 00:34:41;;;;;;;1.30;1.03;;;;;;;7.82;80.49;100193.22;5091606;28;20225;-62
2022/12/31 00:37:09;;;;;;;2.03;1.50;;;;;;;7.68;80.81;100185.38;5091931;28;20209;-62
2022/12/31 00:39:36;;;;;;;2.20;1.23;;;;;;;7.61;81.15;100199.25;5091396;28;20233;-62
2022/12/31 00:42:03;;;;;;;1.87;1.33;;;;;;;7.51;81.29;100198.00;5091570;28;20236;-59
2022/12/31 00:44:30;;;;;;;1.00;0.93;;;;;;;7.46;81.88;100205.81;5091736;28;20226;-59
2022/12/31 00:46:57;;;;;;;0.77;0.67;;;;;;;7.38;81.85;100201.03;5091513;28;20666;-59
2022/12/31 00:49:24;;;;;;;1.43;0.90;;;;;;;7.27;82.71;100195.53;5091393;28;20222;-60
2022/12/31 00:51:51;;;;;;;1.13;1.03;;;;;;;7.36;82.53;100200.28;5091247;28;20201;-60
2022/12/31 00:54:19;;;;;;;1.87;1.27;;;;;;;7.30;82.82;100198.00;5091647;28;20214;-62
2022/12/31 00:56:46;;;;;;;1.03;0.87;;;;;;;7.28;82.94;100197.22;5091603;28;20209;-62
2022/12/31 00:59:13;;;;;;;0.67;0.67;;;;;;;7.25;83.02;100204.97;5091144;28;20236;-62
2022/12/31 01:01:40;;;;;;;1.47;1.17;;;;;;;7.11;83.33;100204.69;5091313;28;20258;-62
2022/12/31 01:04:10;;;;;;;2.83;1.40;;;;;;;7.01;83.84;100205.06;5091018;28;20618;-62
2022/12/31 01:06:37;;;;;;;1.63;0.97;;;;;;;7.00;84.03;100198.31;5091174;28;20206;-59
2022/12/31 01:09:05;;;;;;;0.93;0.93;;;;;;;6.99;84.57;100211.91;5091046;28;20777;-59
2022/12/31 01:11:33;;;;;;;0.53;0.53;;;;;;;6.96;84.44;100201.88;5091284;28;20190;-59
2022/12/31 01:14:02;;;;;;;2.00;1.27;;;;;;;6.98;84.41;100210.28;5091044;28;20226;-59
2022/12/31 01:16:31;;;;;;;0.63;0.63;;;;;;;6.96;84.73;100216.31;5090926;28;20202;-59
2022/12/31 01:18:59;;;;;;;1.70;1.37;;;;;;;6.85;85.01;100214.16;5090778;28;20225;-59
2022/12/31 01:21:26;;;;;;;2.10;1.20;;;;;;;6.81;85.43;100212.66;5090756;28;20198;-59
2022/12/31 01:23:53;;;;;;;0.67;0.67;;;;;;;6.75;85.75;100207.81;5090843;28;20701;-62
2022/12/31 01:26:21;;;;;;;1.80;1.27;;;;;;;6.72;85.80;100206.22;5090831;28;20190;-62
2022/12/31 01:28:49;;;;;;;0.60;0.60;;;;;;;6.69;85.74;100213.09;5090763;28;20214;-62
2022/12/31 01:31:18;;;;;;;2.20;1.63;;;;;;;6.60;85.63;100213.44;5090686;28;20577;-60
2022/12/31 01:33:45;;;;;;;1.47;0.83;;;;;;;6.51;86.48;100210.38;5090253;28;20741;-59
2022/12/31 01:36:14;;;;;;;0.77;0.77;;;;;;;6.43;87.08;100211.53;5090723;28;20555;-62
2022/12/31 01:38:42;;;;;;;2.00;1.13;;;;;;;6.52;86.88;100212.03;5089496;28;20836;-62
2022/12/31 01:41:12;;;;;;;3.67;0.87;;;;;;;6.55;86.78;100211.91;5090439;28;20201;-62
2022/12/31 01:43:50;;;;;;;0.37;0.37;;;;;;;6.45;87.14;100210.59;5090405;28;20228;-60
2022/12/31 01:46:25;;;;;;;1.23;1.03;;;;;;;6.44;87.36;100214.03;5090429;28;20190;-59
2022/12/31 01:48:56;;;;;;;2.33;1.00;;;;;;;6.44;87.42;100210.66;5090137;28;20228;-60
2022/12/31 01:51:26;;;;;;;1.17;0.77;;;;;;;6.38;87.35;100216.81;5090308;28;20201;-59
2022/12/31 01:53:53;;;;;;;2.50;0.83;;;;;;;6.27;87.52;100217.19;5090034;28;20218;-62
2022/12/31 01:56:23;;;;;;;1.33;1.20;;;;;;;6.22;88.00;100218.22;5090579;28;20205;-62
2022/12/31 01:58:55;;;;;;;2.50;1.27;;;;;;;6.21;88.45;100212.31;5090371;28;20234;-59
2022/12/31 02:01:25;;;;;;;2.27;1.50;;;;;;;6.23;88.67;100210.56;5090230;28;20202;-60
2022/12/31 02:03:53;;;;;;;1.23;1.13;;;;;;;6.27;88.41;100211.28;5090229;28;20221;-60
2022/12/31 02:06:22;;;;;;;0.57;0.57;;;;;;;6.35;88.10;100204.22;5089773;28;20194;-62
2022/12/31 02:08:49;;;;;;;1.40;1.30;;;;;;;6.36;87.52;100216.03;5090296;28;20224;-62
2022/12/31 02:11:24;;;;;;;5.13;1.57;;;;;;;6.36;87.07;100221.09;5089894;28;20198;-62
2022/12/31 02:13:55;;;;;;;1.13;1.03;;;;;;;6.24;87.40;100216.47;5089708;28;20217;-62
2022/12/31 02:16:31;;;;;;;1.43;1.33;;;;;;;6.18;87.83;100217.53;5089874;28;20720;-59
2022/12/31 02:19:07;;;;;;;1.37;1.07;;;;;;;6.11;88.24;100219.47;5089969;28;20232;-59
2022/12/31 02:21:48;;;;;;;0.50;0.50;;;;;;;6.09;89.15;100218.69;5089732;28;20209;-59
2022/12/31 02:25:09;;;;;;;0.80;0.60;;;;;;;6.18;89.32;100217.53;5089534;28;20721;-59
2022/12/31 02:27:51;;;;;;;0.50;0.40;;;;;;;6.40;88.65;100215.03;5027161;28;20211;-59
2022/12/31 02:30:21;;;;;;;0.50;0.50;;;;;;;6.39;88.25;100217.63;5027030;28;20631;-59
2022/12/31 02:32:57;;;;;;;1.30;1.20;;;;;;;6.41;88.03;100209.06;5062037;28;20205;-59
2022/12/31 02:35:29;;;;;;;2.10;1.13;;;;;;;6.32;87.76;100219.56;5089434;28;20204;-59
2022/12/31 02:38:02;;;;;;;1.50;0.70;;;;;;;6.32;88.04;100219.56;5089480;28;20202;-59
2022/12/31 02:40:30;;;;;;;1.80;0.97;;;;;;;6.24;88.30;100226.63;5089652;28;20613;-59
2022/12/31 02:42:57;;;;;;;1.97;1.27;;;;;;;6.20;88.70;100225.09;5089412;28;20205;-62
2022/12/31 02:45:32;;;;;;;1.90;0.73;;;;;;;6.15;88.01;100230.31;5089659;28;20193;-62
2022/12/31 02:48:11;;;;;;;0.67;0.57;;;;;;;6.08;88.50;100232.25;5089833;28;20482;-62
2022/12/31 02:50:55;;;;;;;3.03;0.83;;;;;;;6.06;88.72;100234.03;5092052;28;20355;-62
2022/12/31 02:53:36;;;;;;;1.27;1.00;;;;;;;6.20;88.72;100241.16;5093577;28;20661;-62
2022/12/31 02:56:08;;;;;;;0.77;0.77;;;;;;;6.18;88.73;100234.47;5093652;28;20205;-59
2022/12/31 03:04:34;;;;;;;0.63;0.57;;;;;;;6.12;89.02;100236.34;5093855;28;20229;-59
2022/12/31 03:07:03;;;;;;;0.70;0.70;;;;;;;6.26;88.92;100229.94;5093524;28;20197;-62
2022/12/31 03:09:30;;;;;;;2.07;1.20;;;;;;;6.45;87.82;100225.84;5093294;28;20225;-62
2022/12/31 03:14:41;;;;;;;0.50;0.50;;;;;;;6.28;87.67;100230.69;5093712;28;20216;-59
2022/12/31 03:17:09;;;;;;;5.63;1.57;;;;;;;6.31;87.93;100233.97;5093460;28;20512;-61
2022/12/31 03:22:30;;;;;;;2.90;1.00;;;;;;;6.46;87.50;100232.59;5093174;28;20202;-59
2022/12/31 03:27:45;;;;;;;1.27;0.67;;;;;;;6.57;86.77;100238.09;5093308;28;20208;-62
2022/12/31 03:30:13;;;;;;;1.67;1.10;;;;;;;6.64;86.31;100240.41;5093255;28;20565;-59
2022/12/31 03:32:41;;;;;;;2.53;0.97;;;;;;;6.61;86.43;100230.38;5093502;28;20198;-59
2022/12/31 03:35:10;;;;;;;1.00;1.00;;;;;;;6.65;86.13;100231.91;5092449;28;20218;-59
2022/12/31 03:37:37;;;;;;;1.03;0.70;;;;;;;6.54;85.62;100235.69;5092854;28;20202;-59
2022/12/31 03:40:05;;;;;;;1.63;1.00;;;;;;;6.53;86.11;100241.63;5092371;28;20229;-61
2022/12/31 03:42:32;;;;;;;1.77;0.93;;;;;;;6.52;86.17;100246.78;5092738;28;20213;-59
2022/12/31 03:44:59;;;;;;;1.50;0.97;;;;;;;6.60;86.13;100238.84;5092569;28;20218;-59
2022/12/31 03:47:26;;;;;;;1.10;1.00;;;;;;;6.63;85.83;100241.28;5092633;28;20205;-61
2022/12/31 03:49:55;;;;;;;0.70;0.70;;;;;;;6.55;86.03;100246.66;5092315;28;20225;-62
2022/12/31 03:52:22;;;;;;;1.23;0.90;;;;;;;6.44;86.32;100249.59;5092742;28;20205;-59
2022/12/31 03:54:48;;;;;;;2.17;1.03;;;;;;;6.32;86.82;100250.88;5092217;28;20218;-59
2022/12/31 03:57:15;;;;;;;1.20;1.00;;;;;;;6.21;87.16;100247.88;5092631;28;20198;-62
2022/12/31 03:59:42;;;;;;;0.97;0.97;;;;;;;6.13;87.75;100244.78;5092191;28;20233;-61
2022/12/31 04:02:09;;;;;;;0.57;0.57;;;;;;;6.03;88.21;100251.91;5091690;28;20197;-62
2022/12/31 04:04:36;;;;;;;0.90;0.87;;;;;;;5.94;88.58;100254.75;5092225;28;20226;-62
2022/12/31 04:07:04;;;;;;;0.97;0.70;;;;;;;6.02;88.72;100260.41;5090820;28;20205;-62
2022/12/31 04:09:31;;;;;;;1.20;1.03;;;;;;;6.02;88.60;100255.31;5092308;28;20218;-62
2022/12/31 04:11:58;;;;;;;1.23;1.00;;;;;;;5.88;88.88;100249.88;5092233;28;20194;-62
2022/12/31 04:14:25;;;;;;;1.53;0.60;;;;;;;5.88;89.21;100257.47;5092157;28;20213;-62
2022/12/31 04:16:52;;;;;;;2.73;1.40;;;;;;;6.03;88.87;100256.16;5092202;28;20293;-62
2022/12/31 04:19:19;;;;;;;1.37;1.10;;;;;;;6.18;88.74;100257.31;5092001;28;20230;-61
2022/12/31 04:21:46;;;;;;;0.63;0.63;;;;;;;6.32;87.66;100255.13;5092027;28;20577;-59
2022/12/31 04:24:14;;;;;;;0.73;0.60;;;;;;;6.22;87.22;100256.31;5092331;28;20378;-60
2022/12/31 04:26:42;;;;;;;0.60;0.60;;;;;;;6.03;87.71;100264.59;5092321;28;20231;-59
2022/12/31 04:29:09;;;;;;;1.60;1.20;;;;;;;6.06;88.71;100261.94;5091888;28;20620;-59
2022/12/31 04:31:36;;;;;;;1.47;0.73;;;;;;;6.12;88.81;100264.25;5091901;28;20232;-59
2022/12/31 04:34:03;;;;;;;0.97;0.70;;;;;;;6.16;88.28;100261.63;5091681;28;20402;-59
2022/12/31 04:36:30;;;;;;;0.80;0.80;;;;;;;6.13;88.57;100271.00;5091801;28;20202;-62
2022/12/31 04:38:57;;;;;;;1.40;0.83;;;;;;;6.15;88.65;100273.50;5091416;28;20213;-62
2022/12/31 04:41:26;;;;;;;0.50;0.50;;;;;;;6.19;88.32;100274.22;5091854;28;20202;-59
2022/12/31 04:43:54;;;;;;;1.20;1.10;;;;;;;6.16;88.29;100275.13;5091401;28;20234;-59
2022/12/31 04:46:23;;;;;;;0.80;0.80;;;;;;;6.26;88.23;100281.56;5091522;28;20700;-59
2022/12/31 04:48:50;;;;;;;1.43;0.93;;;;;;;6.33;86.86;100287.25;5091274;28;20228;-59
2022/12/31 04:51:18;;;;;;;1.43;0.77;;;;;;;6.17;87.46;100286.97;5091364;28;20194;-62
2022/12/31 04:53:45;;;;;;;1.07;1.07;;;;;;;6.02;88.02;100288.34;5091759;28;20267;-62
2022/12/31 04:56:12;;;;;;;1.27;1.07;;;;;;;5.95;88.71;100284.31;5091378;28;20202;-59
2022/12/31 04:58:41;;;;;;;0.60;0.60;;;;;;;5.95;89.12;100297.03;5091269;28;20225;-59
2022/12/31 05:01:08;;;;;;;0.73;0.73;;;;;;;5.97;89.31;100302.88;5091097;28;20241;-62
2022/12/31 05:03:36;;;;;;;0.70;0.70;;;;;;;6.00;88.29;100295.16;5091108;28;20415;-62
2022/12/31 05:06:05;;;;;;;2.30;1.20;;;;;;;5.80;89.10;100313.56;5091118;28;20205;-59
2022/12/31 05:08:32;;;;;;;1.23;0.80;;;;;;;5.65;89.54;100309.81;5091488;28;20229;-59
2022/12/31 05:10:59;;;;;;;0.70;0.70;;;;;;;5.57;90.42;100301.63;5091019;28;20222;-59
2022/12/31 05:13:27;;;;;;;1.07;0.80;;;;;;;5.66;90.84;100310.63;5090005;28;20221;-59
2022/12/31 05:15:55;;;;;;;1.20;1.10;;;;;;;5.66;90.95;100308.09;5090946;28;20205;-59
2022/12/31 05:18:22;;;;;;;1.77;1.10;;;;;;;5.73;90.47;100309.56;5090936;28;20226;-62
2022/12/31 05:20:50;;;;;;;0.63;0.63;;;;;;;5.72;89.76;100314.69;5090786;28;20241;-59
2022/12/31 05:23:17;;;;;;;2.83;1.70;;;;;;;5.61;89.85;100318.41;5090928;28;20224;-59
2022/12/31 05:25:46;;;;;;;1.00;0.90;;;;;;;5.48;90.18;100322.19;5090974;28;20684;-59
2022/12/31 05:28:13;;;;;;;0.50;0.50;;;;;;;5.37;90.47;100324.25;5090713;28;20229;-59
2022/12/31 05:30:41;;;;;;;0.80;0.50;;;;;;;5.43;91.08;100326.59;5090599;28;20202;-59
2022/12/31 05:33:09;;;;;;;1.67;1.17;;;;;;;5.38;90.90;100325.88;5090718;28;20234;-59
2022/12/31 05:35:36;;;;;;;0.70;0.70;;;;;;;5.34;91.55;100327.69;5090464;28;20210;-59
2022/12/31 05:38:03;;;;;;;1.00;0.83;;;;;;;5.32;91.58;100331.16;5090489;28;20205;-59
2022/12/31 05:40:30;;;;;;;0.80;0.80;;;;;;;5.31;91.86;100329.50;5090355;28;20721;-61
2022/12/31 05:42:57;;;;;;;2.73;1.03;;;;;;;5.32;91.65;100336.22;5090255;28;20194;-59
2022/12/31 05:45:24;;;;;;;0.37;0.37;;;;;;;5.27;92.31;100335.56;5090497;28;20229;-61
2022/12/31 05:47:51;;;;;;;1.67;1.40;;;;;;;5.30;91.65;100333.75;5090547;28;20201;-62
2022/12/31 05:50:19;;;;;;;1.23;1.13;;;;;;;5.24;91.78;100339.00;5090225;28;20194;-59
2022/12/31 05:52:46;;;;;;;0.63;0.63;;;;;;;5.22;92.16;100345.81;5090453;28;20288;-59
2022/12/31 05:55:13;;;;;;;0.70;0.57;;;;;;;5.19;92.50;100351.81;5090290;28;20205;-59
2022/12/31 05:57:41;;;;;;;0.80;0.80;;;;;;;5.17;93.29;100353.56;5090282;28;20700;-59
2022/12/31 06:00:10;;;;;;;1.37;1.07;;;;;;;5.09;92.60;100355.50;5089921;28;20226;-62
2022/12/31 06:02:37;;;;;;;0.60;0.60;;;;;;;5.05;93.25;100353.94;5090347;28;20202;-62
2022/12/31 06:05:04;;;;;;;0.97;0.87;;;;;;;5.12;93.91;100355.41;5089853;28;20222;-59
2022/12/31 06:07:33;;;;;;;1.57;1.10;;;;;;;5.16;93.54;100354.44;5090123;28;20584;-62
2022/12/31 06:10:00;;;;;;;0.97;0.90;;;;;;;5.18;93.29;100360.31;5089693;28;20691;-62
2022/12/31 06:12:27;;;;;;;1.50;1.40;;;;;;;5.18;93.49;100365.38;5090036;28;20198;-59
2022/12/31 06:14:53;;;;;;;0.50;0.50;;;;;;;5.12;93.60;100374.84;5089702;28;20218;-59
2022/12/31 06:17:21;;;;;;;0.63;0.53;;;;;;;5.20;93.64;100383.88;5089858;28;20234;-59
2022/12/31 06:19:48;;;;;;;0.50;0.43;;;;;;;5.19;93.58;100382.25;5089807;28;20301;-59
2022/12/31 06:22:15;;;;;;;0.97;0.80;;;;;;;5.12;94.04;100380.78;5090058;28;20202;-62
2022/12/31 06:24:43;;;;;;;1.30;1.20;;;;;;;5.20;94.02;100388.97;5089559;28;20818;-62
2022/12/31 06:27:10;;;;;;;0.40;0.40;;;;;;;5.22;93.85;100392.28;5089932;28;20204;-59
2022/12/31 06:29:37;;;;;;;0.20;0.20;;;;;;;5.22;94.11;100387.22;5089573;28;20729;-59
2022/12/31 06:32:04;;;;;;;1.30;0.63;;;;;;;5.44;94.27;100391.66;5089694;28;20522;-62
2022/12/31 06:34:31;;;;;;;0.87;0.87;;;;;;;5.65;93.84;100393.53;5089267;28;20222;-62
2022/12/31 06:36:58;;;;;;;0.60;0.60;;;;;;;5.80;93.27;100391.41;5089814;28;20677;-62
2022/12/31 06:39:25;;;;;;;0.40;0.40;;;;;;;5.79;92.77;100397.34;5089862;28;20221;-62
2022/12/31 06:41:54;;;;;;;1.30;1.17;;;;;;;5.80;92.66;100394.78;5089676;28;20611;-62
2022/12/31 06:44:21;;;;;;;1.40;0.63;;;;;;;5.86;92.83;100401.34;5089587;28;20225;-62
2022/12/31 06:46:49;;;;;;;0.90;0.90;;;;;;;5.99;92.66;100400.13;5089710;28;20194;-62
2022/12/31 06:49:16;;;;;;;2.17;1.30;;;;;;;6.11;92.15;100404.81;5089523;28;20217;-62
2022/12/31 06:51:44;;;;;;;0.87;0.83;;;;;;;6.17;91.87;100408.00;5089473;28;20562;-62
2022/12/31 06:54:12;;;;;;;0.97;0.67;;;;;;;6.36;91.48;100409.06;5089719;28;20309;-62
2022/12/31 06:56:39;;;;;;;0.33;0.33;;;;;;;6.57;90.66;100408.34;5089593;28;20256;-62
2022/12/31 06:59:22;;;;;;;1.03;0.97;;;;;;;6.77;89.46;100409.34;5089475;28;20222;-59
2022/12/31 07:02:04;;;;;;;2.13;1.10;;;;;;;6.96;88.15;100417.97;5089299;28;20712;-59
2022/12/31 07:05:05;;;;;;;1.73;1.37;;;;;;;7.21;86.91;100424.72;5089249;28;20574;-60
2022/12/31 07:07:35;;;;;;;0.97;0.80;;;;;;;7.40;85.55;100420.59;5087253;28;20262;-60
2022/12/31 07:10:13;;;;;;;1.20;0.63;;;;;;;7.68;84.50;100424.66;5089251;28;20217;-59
2022/12/31 07:12:57;;;;;;;1.10;0.90;;;;;;;7.88;83.71;100427.25;5089458;28;20201;-60
2022/12/31 07:15:51;;;;;;;0.93;0.93;;;;;;;8.14;82.91;100433.00;5089180;28;20579;-59
2022/12/31 07:18:29;;;;;;;2.60;0.97;;;;;;;8.33;81.65;100446.66;5089265;28;20614;-59
2022/12/31 07:20:56;;;;;;;1.50;0.97;;;;;;;8.57;81.04;100436.34;5089217;28;20222;-63
2022/12/31 07:23:23;;;;;;;1.70;1.60;;;;;;;8.72;79.07;100450.16;5089179;28;20218;-62
2022/12/31 07:25:56;;;;;;;1.30;1.10;;;;;;;8.90;78.54;100459.59;5089253;28;20201;-62
2022/12/31 07:28:38;;;;;;;1.87;1.07;;;;;;;9.12;77.32;100459.47;5089196;28;20254;-62
2022/12/31 07:31:17;;;;;;;0.80;0.80;;;;;;;9.24;76.66;100464.03;5089253;28;20198;-60
2022/12/31 07:33:56;;;;;;;0.80;0.80;;;;;;;9.36;76.08;100459.28;5089081;28;20214;-60
2022/12/31 07:36:39;;;;;;;1.10;1.00;;;;;;;9.49;76.30;100453.53;5089129;28;20198;-59
2022/12/31 07:39:10;;;;;;;2.93;1.17;;;;;;;9.63;75.37;100455.47;5093026;28;20228;-59
2022/12/31 07:41:48;;;;;;;1.20;1.10;;;;;;;9.80;75.03;100456.38;5092669;28;20236;-59
2022/12/31 07:44:29;;;;;;;1.90;1.20;;;;;;;9.92;73.63;100450.72;5093160;28;20226;-59
2022/12/31 07:47:00;;;;;;;1.07;0.77;;;;;;;9.98;73.93;100460.66;5093037;28;20186;-59
2022/12/31 07:49:29;;;;;;;1.10;0.97;;;;;;;10.05;73.47;100451.78;5092940;28;20232;-60
2022/12/31 07:51:57;;;;;;;2.10;1.20;;;;;;;10.14;73.60;100455.63;5092324;28;20213;-60
2022/12/31 07:54:24;;;;;;;1.40;1.00;;;;;;;10.06;72.81;100457.72;5092733;28;20222;-62
2022/12/31 07:56:51;;;;;;;1.20;1.07;;;;;;;10.12;72.90;100458.25;5092549;28;20198;-60
2022/12/31 07:59:34;;;;;;;1.33;0.77;;;;;;;10.22;73.25;100465.47;5092674;28;20604;-59
2022/12/31 08:02:10;;;;;;;2.43;1.40;;;;;;;10.34;71.69;100463.16;5092785;28;20221;-60
2022/12/31 08:04:48;;;;;;;1.50;1.40;;;;;;;10.48;71.41;100469.34;5092271;28;20217;-60
2022/12/31 08:07:23;;;;;;;3.23;2.00;;;;;;;10.65;71.18;100467.59;5092556;28;20198;-62
2022/12/31 08:09:59;;;;;;;1.87;1.33;;;;;;;10.77;70.14;100467.88;5092239;28;20237;-60
2022/12/31 08:12:31;;;;;;;2.13;1.33;;;;;;;11.09;70.06;100466.22;5092348;28;20209;-60
2022/12/31 08:14:58;;;;;;;2.60;1.80;;;;;;;11.27;69.11;100479.78;5092059;28;20713;-59
2022/12/31 08:17:27;;;;;;;1.20;1.07;;;;;;;11.57;68.42;100480.69;5092183;28;20202;-60
2022/12/31 08:19:54;;;;;;;2.80;1.77;;;;;;;11.83;66.68;100483.56;5091922;28;20222;-60
2022/12/31 08:22:39;;;;;;;1.67;1.40;;;;;;;11.94;66.29;100486.41;5092055;28;20237;-60
2022/12/31 08:25:19;;;;;;;4.27;1.40;;;;;;;12.15;64.88;100478.41;5091831;28;20236;-60
2022/12/31 08:27:57;;;;;;;2.80;1.50;;;;;;;12.16;64.69;100480.09;5092047;28;20295;-60
2022/12/31 08:30:35;;;;;;;4.00;1.63;;;;;;;12.33;64.34;100476.53;5091854;28;20209;-62
2022/12/31 08:33:12;;;;;;;1.93;1.60;;;;;;;12.35;64.09;100478.13;5092008;28;20212;-62
2022/12/31 08:35:50;;;;;;;3.10;1.40;;;;;;;12.57;64.18;100480.28;5091649;28;20212;-60
2022/12/31 08:38:28;;;;;;;3.43;1.60;;;;;;;12.85;63.11;100484.59;5091739;28;20228;-60
2022/12/31 08:41:03;;;;;;;5.83;2.60;;;;;;;13.11;63.45;100484.78;5091591;28;20213;-62
2022/12/31 08:43:43;;;;;;;2.03;1.53;;;;;;;13.33;62.87;100480.03;5091755;28;20229;-62
2022/12/31 08:46:19;;;;;;;3.40;1.87;;;;;;;13.55;61.71;100483.84;5091610;28;20196;-62
2022/12/31 08:48:47;;;;;;;2.80;1.60;;;;;;;13.80;60.70;100483.94;5091569;28;20227;-60
2022/12/31 08:51:18;;;;;;;2.73;1.80;;;;;;;13.63;60.28;100481.63;5091567;28;20203;-60
2022/12/31 08:53:47;;;;;;;2.90;2.03;;;;;;;13.80;60.12;100483.13;5091469;28;20225;-62
2022/12/31 08:56:27;;;;;;;3.73;2.20;;;;;;;14.07;60.57;100479.72;5091438;28;20295;-62
2022/12/31 08:59:03;;;;;;;3.90;1.83;;;;;;;14.18;59.70;100472.94;5091299;28;20222;-62
2022/12/31 09:01:37;;;;;;;3.13;1.97;;;;;;;14.41;59.65;100475.78;5091376;28;20242;-62
2022/12/31 09:04:17;;;;;;;3.03;2.10;;;;;;;14.35;58.25;100474.44;5091417;28;20221;-63
2022/12/31 09:06:53;;;;;;;2.43;1.80;;;;;;;14.45;58.09;100470.31;5091337;28;20202;-63
2022/12/31 09:09:26;;;;;;;2.80;2.03;;;;;;;14.59;58.03;100476.34;5091592;28;20225;-63
2022/12/31 09:11:59;;;;;;;3.23;2.17;;;;;;;14.54;58.44;100476.63;5091132;28;20204;-60
2022/12/31 09:14:41;;;;;;;3.20;1.90;;;;;;;14.62;58.48;100482.09;5091052;28;20232;-60
2022/12/31 09:17:24;;;;;;;3.50;2.53;;;;;;;14.82;59.25;100472.22;5090953;28;20426;-60
2022/12/31 09:19:52;;;;;;;3.53;2.27;;;;;;;15.09;57.72;100475.47;5091077;28;20232;-63
2022/12/31 09:22:20;;;;;;;4.20;2.30;;;;;;;14.93;57.19;100470.56;5091162;28;20225;-62
2022/12/31 09:24:47;;;;;;;3.77;2.60;;;;;;;14.92;57.11;100470.66;5090778;28;20599;-63
2022/12/31 09:27:22;;;;;;;3.17;2.07;;;;;;;14.90;58.16;100467.38;5091016;28;20201;-61
2022/12/31 09:30:00;;;;;;;3.27;2.07;;;;;;;14.97;58.02;100466.00;5090774;28;20225;-60
2022/12/31 09:32:37;;;;;;;3.50;2.20;;;;;;;14.61;56.90;100465.00;5090683;28;20201;-60
2022/12/31 09:35:12;;;;;;;3.17;2.13;;;;;;;15.30;57.11;100462.03;5090307;28;20236;-63
2022/12/31 09:37:46;;;;;;;3.70;2.23;;;;;;;15.29;55.85;100453.47;5090952;28;20685;-63
2022/12/31 09:41:06;;;;;;;5.23;2.17;;;;;;;15.75;55.90;100449.44;5090644;28;20198;-61
2022/12/31 09:44:13;;;;;;;3.47;2.23;;;;;;;16.59;54.14;100450.94;5032808;28;20235;-60
2022/12/31 09:47:28;;;;;;;3.50;2.30;;;;;;;17.18;53.55;100452.50;5090344;28;20209;-60
2022/12/31 09:50:20;;;;;;;4.17;2.77;;;;;;;17.72;51.34;100454.25;5090350;28;20720;-63
2022/12/31 09:53:11;;;;;;;4.40;2.40;;;;;;;17.62;51.44;100453.31;5090240;28;20579;-63
2022/12/31 09:55:45;;;;;;;4.23;2.57;;;;;;;18.27;50.23;100443.78;5090260;28;20632;-61
2022/12/31 09:58:25;;;;;;;4.37;2.80;;;;;;;18.14;49.85;100433.59;5090345;28;20625;-61
2022/12/31 10:00:58;;;;;;;4.33;3.00;;;;;;;18.59;50.19;100433.31;5089361;28;20688;-60
2022/12/31 10:03:52;;;;;;;3.60;2.67;;;;;;;17.88;48.86;100428.78;5089904;28;20658;-60
2022/12/31 10:06:25;;;;;;;5.03;2.77;;;;;;;17.42;50.34;100429.91;5090112;28;20204;-60
2022/12/31 10:09:16;;;;;;;3.63;2.77;;;;;;;17.45;50.17;100431.38;5090253;28;20223;-61
2022/12/31 10:12:22;;;;;;;6.23;2.83;;;;;;;18.01;49.22;100422.63;5090123;28;20201;-61
2022/12/31 10:15:15;;;;;;;6.20;2.73;;;;;;;18.63;48.42;100424.31;5090189;28;20220;-61
2022/12/31 10:17:58;;;;;;;5.00;2.80;;;;;;;18.15;49.24;100414.56;5090372;28;20201;-61
2022/12/31 10:20:45;;;;;;;4.73;2.50;;;;;;;18.62;48.70;100420.09;5089796;28;20194;-61
2022/12/31 10:23:35;;;;;;;3.53;2.30;;;;;;;18.54;48.01;100419.94;5090142;28;20231;-61
2022/12/31 10:26:18;;;;;;;3.07;2.57;;;;;;;18.10;48.08;100407.16;5089873;28;20202;-61
2022/12/31 10:28:54;;;;;;;6.17;2.43;;;;;;;17.71;49.99;100405.22;5090108;28;20213;-63
2022/12/31 10:31:37;;;;;;;3.40;2.40;;;;;;;17.86;48.53;100409.19;5089745;28;20196;-63
2022/12/31 10:34:13;;;;;;;5.97;2.80;;;;;;;17.23;50.32;100411.59;5089988;28;20232;-63
2022/12/31 10:36:52;;;;;;;3.93;2.63;;;;;;;17.92;48.89;100413.00;5089716;28;20546;-63
2022/12/31 10:39:31;;;;;;;3.47;2.60;;;;;;;17.90;49.93;100404.56;5089080;28;20224;-61
2022/12/31 10:42:30;;;;;;;5.03;2.70;;;;;;;17.88;49.56;100397.75;5089252;28;20224;-61
2022/12/31 10:45:34;;;;;;;3.90;2.40;;;;;;;17.98;49.97;100402.19;5089301;28;20731;-61
2022/12/31 10:48:37;;;;;;;3.77;2.30;;;;;;;18.36;49.31;100405.94;5095970;28;20195;-61
2022/12/31 10:51:39;;;;;;;3.53;2.30;;;;;;;17.88;49.46;100400.31;5087511;28;20638;-61
2022/12/31 10:55:00;;;;;;;4.57;2.33;;;;;;;17.77;51.77;100405.56;5091630;28;20226;-60
2022/12/31 10:57:58;;;;;;;4.13;2.43;;;;;;;18.69;48.19;100397.91;5070081;28;20205;-60
2022/12/31 11:00:29;;;;;;;4.07;2.70;;;;;;;18.50;48.80;100395.22;5067185;28;20208;-63
2022/12/31 11:03:45;;;;;;;2.93;2.40;;;;;;;18.84;47.98;100390.63;5096380;28;20236;-63
2022/12/31 11:06:51;;;;;;;2.60;2.03;;;;;;;19.38;46.12;100389.34;5088921;28;20194;-63
2022/12/31 11:10:03;;;;;;;2.47;2.17;;;;;;;19.08;46.73;100398.06;5084755;28;20727;-63
2022/12/31 11:13:14;;;;;;;3.80;2.23;;;;;;;19.02;47.13;100397.75;5092907;28;20202;-63
2022/12/31 11:16:07;;;;;;;5.07;2.63;;;;;;;18.67;47.82;100386.84;5082533;28;20207;-63
2022/12/31 11:18:43;;;;;;;4.53;2.60;;;;;;;18.71;48.50;100396.00;5093420;28;20238;-63
2022/12/31 11:21:32;;;;;;;4.57;2.23;;;;;;;18.89;47.22;100392.81;5093079;28;20243;-63
2022/12/31 11:24:13;;;;;;;3.40;2.30;;;;;;;19.06;47.64;100389.59;5090027;28;20622;-63
2022/12/31 11:26:56;;;;;;;4.47;2.70;;;;;;;19.16;46.74;100394.78;5092683;28;20198;-61
2022/12/31 11:29:40;;;;;;;5.57;2.67;;;;;;;18.45;47.49;100385.28;5093325;28;20230;-61
2022/12/31 11:32:22;;;;;;;3.73;2.40;;;;;;;18.07;49.66;100385.88;5092907;28;20205;-61
2022/12/31 11:35:04;;;;;;;4.47;3.07;;;;;;;18.27;49.42;100386.81;5092884;28;20614;-61
2022/12/31 11:37:41;;;;;;;3.50;2.57;;;;;;;18.53;48.65;100387.22;5093105;28;20199;-63
2022/12/31 11:40:41;;;;;;;3.80;2.37;;;;;;;17.78;48.98;100383.94;5092554;28;20660;-63
2022/12/31 11:43:23;;;;;;;4.23;2.40;;;;;;;18.15;49.41;100382.66;5090820;28;20285;-63
2022/12/31 11:46:08;;;;;;;3.70;2.37;;;;;;;18.30;50.09;100387.38;5092691;28;20194;-63
2022/12/31 11:48:41;;;;;;;3.47;2.50;;;;;;;17.72;50.10;100392.16;5092840;28;20225;-63
2022/12/31 11:51:35;;;;;;;3.60;2.33;;;;;;;17.52;50.18;100398.13;5092562;28;20197;-63
2022/12/31 11:54:43;;;;;;;2.83;2.37;;;;;;;17.20;50.70;100397.16;5092181;28;20219;-64
2022/12/31 11:57:22;;;;;;;5.13;2.63;;;;;;;17.19;51.26;100390.34;5069620;28;20202;-63
2022/12/31 11:59:51;;;;;;;2.90;2.03;;;;;;;17.11;50.54;100386.72;5092460;28;20222;-63
2022/12/31 12:02:26;;;;;;;2.93;2.20;;;;;;;17.02;51.47;100384.88;5092185;28;20712;-63
2022/12/31 12:04:57;;;;;;;3.33;2.43;;;;;;;16.87;52.05;100385.13;5092633;28;20219;-63
2022/12/31 12:07:26;;;;;;;3.90;2.40;;;;;;;16.91;51.74;100391.69;5092455;28;20202;-63
2022/12/31 12:09:55;;;;;;;3.10;1.90;;;;;;;16.70;51.47;100388.16;5092255;28;20607;-61
2022/12/31 12:12:22;;;;;;;3.37;2.17;;;;;;;16.74;52.07;100389.56;5092119;28;20685;-63
2022/12/31 12:14:53;;;;;;;4.00;2.67;;;;;;;16.79;51.53;100382.31;5092119;28;20573;-60
2022/12/31 12:17:30;;;;;;;3.47;2.27;;;;;;;16.86;51.60;100385.22;5091971;28;20672;-63